Time;durP1;ratioP1;P1;durP2;ratioP2;P2;SDS_P1;SDS_P2;PMS_P1;PMS_P2;Temp;Humidity;BMP_temperature;BMP_pressure;BME280_temperature;BME280_humidity;BME280_pressure;Samples;Min_cycle;Max_cycle;Signal;HPM_P1;HPM_P2
2021/10/19 00:02:04;;;;;;;40.85;30.33;;;230.60;2252.80;;;;;;5074222;28;20498;-78
2021/10/19 00:04:30;;;;;;;45.22;33.33;;;230.60;2252.80;;;;;;5074262;28;20123;-80
2021/10/19 00:06:56;;;;;;;41.40;31.13;;;230.70;2252.80;;;;;;5074048;28;20111;-80
2021/10/19 00:09:21;;;;;;;38.60;29.52;;;230.70;2252.80;;;;;;5075428;28;20031;-79
2021/10/19 00:11:47;;;;;;;36.15;27.60;;;230.60;2252.80;;;;;;5074111;28;20028;-79
2021/10/19 00:14:13;;;;;;;38.40;30.27;;;230.50;2252.80;;;;;;5073951;28;20032;-78
2021/10/19 00:16:39;;;;;;;39.72;30.35;;;205.70;2252.80;;;;;;5074089;28;20044;-76
2021/10/19 00:19:05;;;;;;;41.92;31.67;;;230.40;2252.80;;;;;;5075172;28;20021;-78
2021/10/19 00:21:31;;;;;;;44.90;34.97;;;230.50;2252.80;;;;;;5073722;28;20460;-78
2021/10/19 00:23:57;;;;;;;39.35;28.50;;;230.40;2252.80;;;;;;5074057;28;20112;-77
2021/10/19 00:26:23;;;;;;;38.35;27.25;;;205.70;2252.80;;;;;;5073890;28;20059;-80
2021/10/19 00:28:49;;;;;;;33.00;24.70;;;230.40;2252.80;;;;;;5073531;28;20031;-80
2021/10/19 00:31:15;;;;;;;39.75;29.55;;;230.40;2252.80;;;;;;5073793;28;20038;-82
2021/10/19 00:33:40;;;;;;;41.63;31.42;;;230.40;2252.80;;;;;;5073422;28;20020;-80
2021/10/19 00:36:06;;;;;;;40.00;29.48;;;205.70;2252.80;;;;;;5073296;28;20056;-81
2021/10/19 00:38:32;;;;;;;37.88;27.00;;;205.70;2252.80;;;;;;5073535;28;20422;-79
2021/10/19 00:40:58;;;;;;;37.00;27.30;;;230.40;2252.80;;;;;;5074750;28;20025;-82
2021/10/19 00:43:27;;;;;;;39.17;27.33;;;230.40;2252.80;;;;;;5072178;28;20436;-79
2021/10/19 00:45:54;;;;;;;40.38;29.38;;;205.60;2252.80;;;;;;5073455;28;20028;-80
2021/10/19 00:48:23;;;;;;;37.08;28.02;;;205.60;2252.80;;;;;;5073297;28;20025;-80
2021/10/19 00:50:50;;;;;;;34.80;26.95;;;205.50;2252.80;;;;;;5074672;28;20115;-80
2021/10/19 00:53:18;;;;;;;41.63;29.40;;;205.40;2252.80;;;;;;5073341;28;20024;-78
2021/10/19 00:55:44;;;;;;;44.08;31.48;;;205.50;2252.80;;;;;;5073147;28;20029;-81
2021/10/19 00:58:10;;;;;;;46.25;30.88;;;205.60;2252.80;;;;;;5074432;28;20028;-79
2021/10/19 01:00:36;;;;;;;38.75;27.05;;;205.40;2252.80;;;;;;5073099;28;20052;-80
2021/10/19 01:03:04;;;;;;;38.10;26.17;;;205.10;2252.80;;;;;;5073915;28;20073;-78
2021/10/19 01:05:30;;;;;;;45.75;26.55;;;205.30;2252.80;;;;;;5073205;28;20035;-82
2021/10/19 01:07:56;;;;;;;36.45;24.35;;;205.40;2252.80;;;;;;5074275;28;20021;-79
2021/10/19 01:10:22;;;;;;;37.85;27.83;;;205.40;2252.80;;;;;;5074069;28;20099;-78
2021/10/19 01:12:48;;;;;;;37.97;24.75;;;205.20;2252.80;;;;;;5073029;28;20448;-78
2021/10/19 01:15:17;;;;;;;36.28;26.48;;;205.20;2252.80;;;;;;5072860;28;20112;-80
2021/10/19 01:17:51;;;;;;;43.63;31.30;;;205.30;2252.80;;;;;;5072378;28;20099;-80
2021/10/19 01:20:20;;;;;;;37.15;25.88;;;205.20;2252.80;;;;;;5072667;28;20123;-80
2021/10/19 01:22:46;;;;;;;39.38;29.25;;;205.20;2252.80;;;;;;5072624;28;20036;-78
2021/10/19 01:25:17;;;;;;;44.88;31.73;;;205.20;2252.80;;;;;;5072476;28;20032;-80
2021/10/19 01:27:52;;;;;;;39.25;27.08;;;205.20;2252.80;;;;;;5072751;28;20109;-82
2021/10/19 01:30:19;;;;;;;61.38;40.15;;;205.20;2252.80;;;;;;5072882;28;20028;-77
2021/10/19 01:32:45;;;;;;;42.55;30.15;;;205.10;2252.80;;;;;;5072481;28;20081;-81
2021/10/19 01:35:12;;;;;;;50.17;33.28;;;205.10;2252.80;;;;;;5072473;28;20044;-80
2021/10/19 01:37:38;;;;;;;39.20;26.67;;;205.10;2252.80;;;;;;5072447;28;20063;-81
2021/10/19 01:40:09;;;;;;;34.55;24.02;;;205.10;2252.80;;;;;;5073864;28;20469;-80
2021/10/19 01:42:36;;;;;;;29.65;19.02;;;205.20;2252.80;;;;;;5072531;28;20124;-78
2021/10/19 01:45:03;;;;;;;30.10;20.52;;;205.10;2252.80;;;;;;5072261;28;20051;-78
2021/10/19 01:47:29;;;;;;;31.80;22.10;;;205.00;2252.80;;;;;;5073813;28;20082;-79
2021/10/19 01:49:55;;;;;;;33.58;22.05;;;204.90;2252.80;;;;;;5072656;28;20082;-83
2021/10/19 01:52:21;;;;;;;30.25;20.52;;;204.80;2252.80;;;;;;5072180;28;20032;-83
2021/10/19 01:54:47;;;;;;;30.63;19.45;;;180.10;2252.80;;;;;;5072225;28;20094;-81
2021/10/19 01:57:13;;;;;;;30.45;20.85;;;180.10;2252.80;;;;;;5073788;28;20025;-79
2021/10/19 01:59:39;;;;;;;30.10;20.77;;;204.90;2252.80;;;;;;5073413;28;20158;-81
2021/10/19 02:02:04;;;;;;;32.53;21.40;;;204.90;2252.80;;;;;;5072487;28;20044;-81
2021/10/19 02:04:30;;;;;;;34.97;21.98;;;204.80;2252.80;;;;;;5072337;28;20025;-82
2021/10/19 02:06:56;;;;;;;38.35;23.38;;;180.10;2252.80;;;;;;5076142;28;20104;-77
2021/10/19 02:09:22;;;;;;;31.73;22.48;;;180.00;2252.80;;;;;;5078169;28;20027;-77
2021/10/19 02:11:47;;;;;;;34.20;22.35;;;179.90;2252.80;;;;;;5079691;28;20040;-78
2021/10/19 02:14:13;;;;;;;38.08;24.70;;;180.00;2252.80;;;;;;5079043;28;20074;-77
2021/10/19 02:16:39;;;;;;;33.33;24.38;;;180.10;2252.80;;;;;;5074636;28;20388;-80
2021/10/19 02:19:05;;;;;;;34.25;23.20;;;180.00;2252.80;;;;;;5072230;28;20024;-78
2021/10/19 02:21:31;;;;;;;36.90;24.30;;;179.90;2252.80;;;;;;5073243;28;20068;-80
2021/10/19 02:23:56;;;;;;;37.50;23.98;;;179.90;2252.80;;;;;;5073123;28;20020;-77
2021/10/19 02:26:22;;;;;;;35.67;24.60;;;180.00;2252.80;;;;;;5072179;28;20503;-80
2021/10/19 02:28:48;;;;;;;33.17;24.02;;;204.90;2252.80;;;;;;5071839;28;20048;-81
2021/10/19 02:31:14;;;;;;;36.35;22.95;;;204.80;2252.80;;;;;;5072087;28;20469;-78
2021/10/19 02:33:39;;;;;;;35.75;23.80;;;204.80;2252.80;;;;;;5073040;28;20032;-81
2021/10/19 02:36:05;;;;;;;33.47;22.85;;;204.90;2252.80;;;;;;5071741;28;20041;-82
2021/10/19 02:38:31;;;;;;;32.05;23.50;;;205.00;2252.80;;;;;;5073174;28;20103;-79
2021/10/19 02:40:57;;;;;;;33.13;24.45;;;205.00;2252.80;;;;;;5071685;28;20517;-80
2021/10/19 02:43:23;;;;;;;36.53;24.13;;;205.10;2252.80;;;;;;5073331;28;20031;-79
2021/10/19 02:45:49;;;;;;;32.65;23.88;;;205.10;2252.80;;;;;;5072014;28;20431;-77
2021/10/19 02:48:14;;;;;;;32.83;25.05;;;205.10;2252.80;;;;;;5071782;28;20111;-80
2021/10/19 02:50:40;;;;;;;37.78;26.10;;;205.20;2252.80;;;;;;5071947;28;20067;-79
2021/10/19 02:53:06;;;;;;;38.78;25.27;;;205.20;2252.80;;;;;;5072012;28;20056;-83
2021/10/19 02:55:32;;;;;;;40.65;27.63;;;205.10;2252.80;;;;;;5071738;28;20051;-80
2021/10/19 02:57:58;;;;;;;36.45;24.48;;;205.00;2252.80;;;;;;5073290;28;20108;-78
2021/10/19 03:00:23;;;;;;;36.13;24.77;;;205.00;2252.80;;;;;;5071971;28;20027;-78
2021/10/19 03:02:49;;;;;;;37.42;24.13;;;204.90;2252.80;;;;;;5071550;28;20033;-81
2021/10/19 03:05:15;;;;;;;38.42;25.45;;;204.80;2252.80;;;;;;5071752;28;20032;-80
2021/10/19 03:07:41;;;;;;;34.05;26.02;;;204.90;2252.80;;;;;;5073874;28;20536;-79
2021/10/19 03:10:08;;;;;;;36.03;25.05;;;205.00;2252.80;;;;;;5075003;28;20066;-82
2021/10/19 03:12:34;;;;;;;40.47;25.92;;;180.10;2252.80;;;;;;5076564;28;20082;-83
2021/10/19 03:15:00;;;;;;;33.88;24.35;;;179.90;2252.80;;;;;;5075226;28;20036;-82
2021/10/19 03:17:26;;;;;;;35.30;23.90;;;180.00;2252.80;;;;;;5074913;28;20032;-80
2021/10/19 03:19:52;;;;;;;36.33;24.33;;;180.10;2252.80;;;;;;5075206;28;20025;-80
2021/10/19 03:22:17;;;;;;;38.58;24.88;;;180.10;2252.80;;;;;;5075167;28;20040;-78
2021/10/19 03:24:43;;;;;;;42.70;28.90;;;204.80;2252.80;;;;;;5075661;28;20459;-79
2021/10/19 03:27:09;;;;;;;42.80;29.30;;;180.10;2252.80;;;;;;5074977;28;20028;-78
2021/10/19 03:29:35;;;;;;;33.30;24.67;;;180.10;2252.80;;;;;;5074919;28;20024;-81
2021/10/19 03:32:01;;;;;;;32.95;23.65;;;204.80;2252.80;;;;;;5074587;28;20040;-81
2021/10/19 03:34:26;;;;;;;36.65;23.42;;;179.90;2252.80;;;;;;5074661;28;20094;-77
2021/10/19 03:36:52;;;;;;;39.03;26.50;;;179.90;2252.80;;;;;;5074467;28;20031;-81
2021/10/19 03:39:18;;;;;;;39.33;26.10;;;179.70;2252.80;;;;;;5076128;28;20027;-79
2021/10/19 03:41:44;;;;;;;35.55;26.10;;;179.70;2252.80;;;;;;5074692;28;20491;-81
2021/10/19 03:44:10;;;;;;;39.10;27.40;;;179.70;2252.80;;;;;;5074405;28;20048;-80
2021/10/19 03:46:36;;;;;;;38.97;26.80;;;179.70;2252.80;;;;;;5074801;28;20021;-79
2021/10/19 03:49:03;;;;;;;38.50;27.73;;;179.70;2252.80;;;;;;5074219;28;20020;-80
2021/10/19 03:51:29;;;;;;;42.72;28.83;;;154.30;2252.80;;;;;;5075936;28;20472;-79
2021/10/19 03:53:54;;;;;;;45.22;32.40;;;179.50;2252.80;;;;;;5074473;28;20063;-81
2021/10/19 03:56:20;;;;;;;36.85;29.10;;;179.40;2252.80;;;;;;5074517;28;20066;-80
2021/10/19 03:58:46;;;;;;;41.63;29.98;;;179.40;2252.80;;;;;;5074270;28;20058;-78
2021/10/19 04:01:12;;;;;;;42.25;29.52;;;179.50;2252.80;;;;;;5075838;28;20589;-78
2021/10/19 04:03:38;;;;;;;39.80;26.80;;;179.60;2252.80;;;;;;5074245;28;20029;-78
2021/10/19 04:06:04;;;;;;;44.08;29.67;;;179.80;2252.80;;;;;;5074126;28;20115;-78
2021/10/19 04:08:29;;;;;;;40.60;29.83;;;179.70;2252.80;;;;;;5074158;28;20377;-81
2021/10/19 04:10:57;;;;;;;45.63;32.60;;;179.90;2252.80;;;;;;5074151;28;20029;-80
2021/10/19 04:13:23;;;;;;;45.10;33.28;;;179.90;2252.80;;;;;;5075125;28;20024;-79
2021/10/19 04:15:48;;;;;;;48.42;34.78;;;179.80;2252.80;;;;;;5074078;28;20420;-79
2021/10/19 04:18:14;;;;;;;58.55;40.15;;;179.80;2252.80;;;;;;5073716;28;20119;-78
2021/10/19 04:20:40;;;;;;;62.67;42.72;;;180.00;2252.80;;;;;;5075081;28;20026;-78
2021/10/19 04:23:06;;;;;;;69.20;46.78;;;179.90;2252.80;;;;;;5073875;28;20048;-79
2021/10/19 04:25:32;;;;;;;71.22;51.17;;;179.80;2252.80;;;;;;5073891;28;20025;-80
2021/10/19 04:27:57;;;;;;;69.15;49.67;;;179.80;2252.80;;;;;;5073436;28;20033;-79
2021/10/19 04:30:23;;;;;;;66.05;46.72;;;179.80;2252.80;;;;;;5073864;28;20024;-80
2021/10/19 04:32:49;;;;;;;59.33;43.25;;;179.80;2252.80;;;;;;5073342;28;20485;-82
2021/10/19 04:35:15;;;;;;;66.63;42.42;;;179.70;2252.80;;;;;;5074820;28;20047;-81
2021/10/19 04:37:41;;;;;;;59.00;43.60;;;179.90;2252.80;;;;;;5073604;28;20078;-78
2021/10/19 04:40:07;;;;;;;53.53;40.90;;;180.00;2252.80;;;;;;5073398;28;20069;-78
2021/10/19 04:42:37;;;;;;;60.65;45.17;;;179.60;2252.80;;;;;;5073388;28;20040;-81
2021/10/19 04:45:04;;;;;;;64.80;43.33;;;179.70;2252.80;;;;;;5073453;28;20025;-78
2021/10/19 04:47:29;;;;;;;42.85;32.65;;;179.70;2252.80;;;;;;5073118;28;20418;-79
2021/10/19 04:49:58;;;;;;;48.20;33.65;;;179.70;2252.80;;;;;;5074665;28;20036;-78
2021/10/19 04:52:24;;;;;;;51.22;36.45;;;179.60;2252.80;;;;;;5074592;28;20028;-80
2021/10/19 04:54:50;;;;;;;50.60;35.60;;;179.50;2252.80;;;;;;5073146;28;20119;-80
2021/10/19 04:57:16;;;;;;;40.33;30.65;;;179.80;2252.80;;;;;;5073430;28;20456;-77
2021/10/19 04:59:42;;;;;;;43.72;28.85;;;179.50;2252.80;;;;;;5074560;28;20372;-77
2021/10/19 05:02:08;;;;;;;43.53;29.85;;;179.40;2252.80;;;;;;5072851;28;20043;-79
2021/10/19 05:04:33;;;;;;;45.50;32.80;;;179.40;2252.80;;;;;;5073150;28;20029;-80
2021/10/19 05:06:59;;;;;;;76.47;47.53;;;179.30;2252.80;;;;;;5073037;28;20025;-78
2021/10/19 05:09:25;;;;;;;71.65;49.85;;;179.20;2252.80;;;;;;5072927;28;20028;-83
2021/10/19 05:11:51;;;;;;;76.18;50.80;;;179.40;2252.80;;;;;;5073069;28;20357;-79
2021/10/19 05:14:17;;;;;;;74.00;49.40;;;179.50;2252.80;;;;;;5074368;28;20031;-80
2021/10/19 05:16:43;;;;;;;77.13;52.13;;;179.50;2252.80;;;;;;5072749;28;20456;-81
2021/10/19 05:19:09;;;;;;;72.55;53.85;;;179.50;2252.80;;;;;;5074521;28;20073;-79
2021/10/19 05:21:34;;;;;;;72.32;50.83;;;179.40;2252.80;;;;;;5072942;28;20037;-82
2021/10/19 05:24:00;;;;;;;72.38;50.78;;;179.60;2252.80;;;;;;5072877;28;20028;-78
2021/10/19 05:26:26;;;;;;;87.20;63.33;;;179.60;2252.80;;;;;;5073011;28;20020;-80
2021/10/19 05:28:52;;;;;;;54.65;38.00;;;179.70;2252.80;;;;;;5073248;28;20024;-79
2021/10/19 05:31:18;;;;;;;55.00;40.20;;;179.50;2252.80;;;;;;5072847;28;20028;-77
2021/10/19 05:33:44;;;;;;;68.15;48.45;;;179.40;2252.80;;;;;;5072942;28;20028;-82
2021/10/19 05:36:10;;;;;;;48.60;33.75;;;179.50;2252.80;;;;;;5072370;28;20642;-81
2021/10/19 05:38:35;;;;;;;101.95;79.97;;;179.40;2252.80;;;;;;5073968;28;20091;-80
2021/10/19 05:41:02;;;;;;;64.55;47.72;;;179.50;2252.80;;;;;;5073892;28;20043;-78
2021/10/19 05:43:28;;;;;;;56.10;39.83;;;179.50;2252.80;;;;;;5073780;28;20020;-80
2021/10/19 05:45:53;;;;;;;54.40;40.17;;;179.60;2252.80;;;;;;5072683;28;20090;-80
2021/10/19 05:48:19;;;;;;;68.28;48.95;;;179.70;2252.80;;;;;;5072240;28;20029;-78
2021/10/19 05:50:45;;;;;;;83.43;57.47;;;179.80;2252.80;;;;;;5072525;28;20090;-80
2021/10/19 05:53:11;;;;;;;99.00;68.18;;;180.00;2252.80;;;;;;5072522;28;20024;-80
2021/10/19 05:55:37;;;;;;;97.68;66.82;;;179.90;2252.80;;;;;;5072418;28;20025;-79
2021/10/19 05:58:04;;;;;;;84.97;58.28;;;179.70;2252.80;;;;;;5072187;28;20024;-77
2021/10/19 06:00:32;;;;;;;60.53;44.42;;;179.60;2252.80;;;;;;5072402;28;20472;-80
2021/10/19 06:02:58;;;;;;;52.85;37.97;;;179.80;2252.80;;;;;;5072349;28;20067;-79
2021/10/19 06:05:24;;;;;;;45.85;34.38;;;179.80;2252.80;;;;;;5072519;28;20029;-80
2021/10/19 06:07:53;;;;;;;58.17;37.17;;;179.90;2252.80;;;;;;5072283;28;20529;-80
2021/10/19 06:10:21;;;;;;;48.55;35.92;;;179.80;2252.80;;;;;;5072402;28;20024;-78
2021/10/19 06:12:47;;;;;;;58.47;43.33;;;179.60;2252.80;;;;;;5071914;28;20035;-80
2021/10/19 06:15:15;;;;;;;54.78;41.50;;;179.50;2252.80;;;;;;5072220;28;20177;-79
2021/10/19 06:17:41;;;;;;;54.28;36.97;;;179.70;2252.80;;;;;;5071899;28;20460;-79
2021/10/19 06:20:08;;;;;;;58.65;39.03;;;179.40;2252.80;;;;;;5073561;28;20368;-81
2021/10/19 06:22:34;;;;;;;57.75;41.67;;;179.90;2252.80;;;;;;5072102;28;20039;-82
2021/10/19 06:25:00;;;;;;;63.85;46.05;;;179.90;2252.80;;;;;;5071978;28;20024;-80
2021/10/19 06:27:25;;;;;;;69.10;50.38;;;179.90;2252.80;;;;;;5072367;28;20456;-82
2021/10/19 06:29:51;;;;;;;65.45;46.75;;;180.00;2252.80;;;;;;5072269;28;20041;-79
2021/10/19 06:32:17;;;;;;;61.78;43.38;;;180.00;2252.80;;;;;;5071867;28;20056;-77
2021/10/19 06:34:43;;;;;;;53.47;42.55;;;179.80;2252.80;;;;;;5073430;28;20480;-81
2021/10/19 06:37:09;;;;;;;57.05;38.92;;;179.90;2252.80;;;;;;5072196;28;20025;-77
2021/10/19 06:39:35;;;;;;;69.10;48.15;;;180.00;2252.80;;;;;;5071885;28;20081;-83
2021/10/19 06:42:01;;;;;;;66.80;48.67;;;180.10;2252.80;;;;;;5074751;28;20396;-77
2021/10/19 06:44:26;;;;;;;60.50;43.83;;;180.00;2252.80;;;;;;5075905;28;20025;-78
2021/10/19 06:46:52;;;;;;;52.42;39.33;;;180.10;2252.80;;;;;;5075418;28;20033;-76
2021/10/19 06:49:18;;;;;;;49.10;36.10;;;204.80;2252.80;;;;;;5076914;28;20028;-79
2021/10/19 06:51:44;;;;;;;43.50;29.25;;;204.80;2252.80;;;;;;5075650;28;20115;-77
2021/10/19 06:54:10;;;;;;;50.38;32.80;;;204.90;2252.80;;;;;;5076339;28;20535;-80
2021/10/19 06:56:36;;;;;;;49.88;36.50;;;204.80;2252.80;;;;;;5075734;28;20487;-77
2021/10/19 06:59:02;;;;;;;47.20;34.45;;;204.90;2252.80;;;;;;5077047;28;20036;-79
2021/10/19 07:01:27;;;;;;;52.50;35.08;;;204.90;2252.80;;;;;;5075182;28;20033;-78
2021/10/19 07:03:53;;;;;;;42.17;31.88;;;204.80;2252.80;;;;;;5075519;28;20468;-80
2021/10/19 07:06:19;;;;;;;43.30;31.17;;;204.90;2252.80;;;;;;5075452;28;20031;-81
2021/10/19 07:08:45;;;;;;;48.38;36.13;;;204.90;2252.80;;;;;;5075204;28;20032;-80
2021/10/19 07:11:10;;;;;;;39.88;30.00;;;205.00;2252.80;;;;;;5075440;28;20119;-79
2021/10/19 07:13:36;;;;;;;45.05;33.05;;;205.00;2252.80;;;;;;5076609;28;20431;-77
2021/10/19 07:16:02;;;;;;;40.22;30.58;;;205.10;2252.80;;;;;;5075305;28;20024;-79
2021/10/19 07:18:28;;;;;;;46.17;32.58;;;205.20;2252.80;;;;;;5076558;28;20078;-78
2021/10/19 07:20:54;;;;;;;41.22;29.55;;;205.20;2252.80;;;;;;5074934;28;20442;-79
2021/10/19 07:23:20;;;;;;;40.42;31.55;;;205.20;2252.80;;;;;;5075251;28;20032;-77
2021/10/19 07:25:46;;;;;;;46.72;35.88;;;205.20;2252.80;;;;;;5075077;28;20028;-81
2021/10/19 07:28:12;;;;;;;46.05;34.15;;;205.20;2252.80;;;;;;5074853;28;20035;-79
2021/10/19 07:30:39;;;;;;;43.85;30.67;;;205.40;2252.80;;;;;;5074990;28;20090;-78
2021/10/19 07:33:05;;;;;;;55.58;39.50;;;205.50;2252.80;;;;;;5075022;28;20052;-79
2021/10/19 07:35:31;;;;;;;43.95;33.47;;;205.50;2252.80;;;;;;5074134;28;20396;-79
2021/10/19 07:37:56;;;;;;;46.95;31.63;;;205.70;2252.80;;;;;;5074881;28;20025;-78
2021/10/19 07:40:22;;;;;;;39.30;31.60;;;230.40;2252.80;;;;;;5074821;28;20539;-78
2021/10/19 07:42:49;;;;;;;40.33;32.00;;;230.40;2252.80;;;;;;5075651;28;20120;-77
2021/10/19 07:45:16;;;;;;;64.45;45.65;;;205.60;2252.80;;;;;;5074702;28;20028;-78
2021/10/19 07:47:43;;;;;;;50.88;35.50;;;230.40;2252.80;;;;;;5074548;28;20031;-78
2021/10/19 07:50:17;;;;;;;47.70;37.88;;;230.60;2252.80;;;;;;5074444;28;20052;-75
2021/10/19 07:52:43;;;;;;;43.70;30.90;;;230.80;2252.80;;;;;;5075209;28;20163;-79
2021/10/19 07:55:10;;;;;;;46.25;33.13;;;230.80;2252.80;;;;;;5075757;28;20501;-82
2021/10/19 07:57:48;;;;;;;42.75;33.00;;;231.00;2252.80;;;;;;5074169;28;20111;-81
2021/10/19 08:00:15;;;;;;;46.88;34.03;;;230.80;2252.80;;;;;;5074371;28;20058;-77
2021/10/19 08:02:42;;;;;;;56.00;41.75;;;230.90;2252.80;;;;;;5075320;28;20036;-80
2021/10/19 08:05:15;;;;;;;50.95;40.22;;;231.00;2252.80;;;;;;5074254;28;20461;-80
2021/10/19 08:07:49;;;;;;;56.33;40.70;;;231.20;2252.80;;;;;;5074232;28;20159;-80
2021/10/19 08:10:21;;;;;;;53.00;41.22;;;231.20;2252.80;;;;;;5074073;28;20024;-77
2021/10/19 08:12:47;;;;;;;49.30;36.28;;;256.00;2252.80;;;;;;5075430;28;20384;-80
2021/10/19 08:15:14;;;;;;;45.88;38.20;;;256.20;2252.80;;;;;;5075418;28;20032;-78
2021/10/19 08:17:40;;;;;;;60.90;43.75;;;256.30;2252.80;;;;;;5075171;28;20028;-76
2021/10/19 08:20:08;;;;;;;60.17;43.75;;;256.30;2252.80;;;;;;5074015;28;20032;-79
2021/10/19 08:22:35;;;;;;;48.35;38.42;;;256.50;2252.80;;;;;;5074932;28;20040;-77
2021/10/19 08:25:03;;;;;;;50.25;38.90;;;256.50;2252.80;;;;;;5074618;28;20103;-79
2021/10/19 08:27:29;;;;;;;50.72;37.60;;;256.50;2252.80;;;;;;5075230;28;20487;-78
2021/10/19 08:29:55;;;;;;;57.45;40.88;;;256.50;2252.80;;;;;;5073830;28;20035;-78
2021/10/19 08:32:20;;;;;;;44.40;33.95;;;256.70;2252.80;;;;;;5073566;28;20033;-78
2021/10/19 08:34:47;;;;;;;44.70;36.10;;;256.80;2252.80;;;;;;5073493;28;20076;-78
2021/10/19 08:37:13;;;;;;;33.67;26.48;;;256.80;2252.80;;;;;;5074909;28;20032;-80
2021/10/19 08:39:38;;;;;;;39.92;29.40;;;256.80;2252.80;;;;;;5074599;28;20469;-77
2021/10/19 08:42:04;;;;;;;31.98;21.92;;;256.90;2252.80;;;;;;5073583;28;20039;-80
2021/10/19 08:44:30;;;;;;;36.45;27.35;;;256.90;2252.80;;;;;;5073466;28;20068;-77
2021/10/19 08:46:56;;;;;;;40.92;28.08;;;256.90;2252.80;;;;;;5073207;28;20444;-79
2021/10/19 08:49:22;;;;;;;37.22;30.77;;;281.60;2278.40;;;;;;5073269;28;20025;-76
2021/10/19 08:51:48;;;;;;;42.45;36.03;;;281.80;2278.40;;;;;;5073036;28;20070;-75
2021/10/19 08:54:14;;;;;;;34.47;26.30;;;281.90;2278.40;;;;;;5073467;28;20047;-78
2021/10/19 08:56:40;;;;;;;38.15;27.45;;;282.00;2278.40;;;;;;5073274;28;20024;-76
2021/10/19 08:59:07;;;;;;;38.08;30.20;;;282.20;2278.40;;;;;;5073166;28;20158;-75
2021/10/19 09:01:37;;;;;;;30.50;25.77;;;282.30;2278.40;;;;;;5073105;28;20036;-75
2021/10/19 09:04:08;;;;;;;83.63;65.28;;;282.50;2278.40;;;;;;5075403;28;20033;-76
2021/10/19 09:06:36;;;;;;;29.05;23.90;;;307.30;2304.00;;;;;;5074570;28;20048;-76
2021/10/19 09:09:10;;;;;;;32.63;24.45;;;307.30;2304.00;;;;;;5073930;28;20027;-74
2021/10/19 09:11:47;;;;;;;28.55;22.05;;;307.40;2304.00;;;;;;5074258;28;20028;-76
2021/10/19 09:14:15;;;;;;;28.45;23.13;;;307.60;2304.00;;;;;;5073969;28;20042;-75
2021/10/19 09:16:45;;;;;;;30.40;23.65;;;307.70;2304.00;;;;;;5073165;28;20113;-75
2021/10/19 09:19:12;;;;;;;37.10;27.92;;;307.90;2304.00;;;;;;5072968;28;20028;-75
2021/10/19 09:22:06;;;;;;;26.02;20.63;;;308.10;2304.00;;;;;;5072359;28;20135;-76
2021/10/19 09:24:43;;;;;;;27.23;21.30;;;308.00;2304.00;;;;;;5070770;28;20037;-76
2021/10/19 09:27:15;;;;;;;27.48;22.95;;;308.10;2304.00;;;;;;5072370;28;20360;-73
2021/10/19 09:29:44;;;;;;;24.65;20.00;;;308.10;2304.00;;;;;;5072825;28;20033;-75
2021/10/19 09:32:12;;;;;;;27.88;21.58;;;308.10;2304.00;;;;;;5073547;28;20032;-76
2021/10/19 09:34:39;;;;;;;30.05;23.33;;;332.80;2329.60;;;;;;5071939;28;20131;-75
2021/10/19 09:37:08;;;;;;;30.02;24.48;;;333.00;2329.60;;;;;;5072546;28;20029;-75
2021/10/19 09:39:39;;;;;;;30.45;21.85;;;333.10;2329.60;;;;;;5073798;28;20023;-76
2021/10/19 09:42:10;;;;;;;30.65;22.38;;;333.10;2329.60;;;;;;5072135;28;20032;-75
2021/10/19 09:44:37;;;;;;;25.88;22.15;;;333.20;2329.60;;;;;;5074117;28;20020;-75
2021/10/19 09:47:04;;;;;;;29.48;22.30;;;333.50;2329.60;;;;;;5072383;28;20024;-76
2021/10/19 09:49:30;;;;;;;32.60;25.60;;;333.50;2329.60;;;;;;5072095;28;20346;-76
2021/10/19 09:52:00;;;;;;;30.27;24.52;;;333.60;2329.60;;;;;;5072457;28;20039;-75
2021/10/19 09:54:29;;;;;;;33.50;25.40;;;333.60;2329.60;;;;;;5072280;28;20547;-75
2021/10/19 09:56:59;;;;;;;32.70;22.52;;;333.70;2329.60;;;;;;5071927;28;20486;-74
2021/10/19 09:59:26;;;;;;;27.88;21.73;;;358.40;2329.60;;;;;;5072289;28;20024;-74
2021/10/19 10:01:52;;;;;;;31.70;23.30;;;358.50;2329.60;;;;;;5071664;28;20064;-73
2021/10/19 10:04:21;;;;;;;34.90;24.48;;;358.70;2329.60;;;;;;5072407;28;20068;-76
2021/10/19 10:06:48;;;;;;;38.85;26.45;;;358.70;2329.60;;;;;;5072252;28;20120;-78
2021/10/19 10:09:14;;;;;;;37.25;27.48;;;358.90;2329.60;;;;;;5073196;28;20036;-78
2021/10/19 10:11:41;;;;;;;32.55;24.73;;;358.90;2329.60;;;;;;5072210;28;20216;-76
2021/10/19 10:14:07;;;;;;;39.92;24.75;;;359.00;2329.60;;;;;;5073076;28;20028;-76
2021/10/19 10:16:47;;;;;;;33.72;24.08;;;359.10;2329.60;;;;;;5074096;28;20025;-76
2021/10/19 10:19:20;;;;;;;26.23;23.13;;;359.10;2329.60;;;;;;5076277;28;20031;-77
2021/10/19 10:21:48;;;;;;;29.25;21.30;;;359.20;2329.60;;;;;;5076138;28;20396;-78
2021/10/19 10:24:25;;;;;;;28.60;22.00;;;384.00;2329.60;;;;;;5076865;28;20496;-76
2021/10/19 10:27:05;;;;;;;27.25;21.35;;;384.00;2329.60;;;;;;5076216;28;20047;-78
2021/10/19 10:29:48;;;;;;;29.50;23.98;;;384.30;2329.60;;;;;;5076191;28;20032;-77
2021/10/19 10:32:30;;;;;;;38.33;23.10;;;384.50;2329.60;;;;;;5076111;28;20056;-78
2021/10/19 10:35:11;;;;;;;35.03;22.25;;;384.60;2329.60;;;;;;5075744;28;20056;-77
2021/10/19 10:37:50;;;;;;;33.03;20.90;;;384.80;2329.60;;;;;;5075661;28;20032;-78
2021/10/19 10:40:40;;;;;;;35.75;27.23;;;384.60;2329.60;;;;;;5075994;28;20025;-76
2021/10/19 10:43:26;;;;;;;25.08;20.92;;;384.80;2329.60;;;;;;5077019;28;20029;-77
2021/10/19 10:46:03;;;;;;;23.30;17.90;;;409.60;2355.20;;;;;;5075630;28;20154;-77
2021/10/19 10:48:29;;;;;;;31.70;21.13;;;409.60;2355.20;;;;;;5075819;28;20388;-76
2021/10/19 10:50:56;;;;;;;26.38;19.17;;;409.70;2355.20;;;;;;5075555;28;20123;-78
2021/10/19 10:53:30;;;;;;;25.60;19.50;;;409.70;2355.20;;;;;;5076879;28;20024;-78
2021/10/19 10:55:56;;;;;;;25.65;17.13;;;409.90;2355.20;;;;;;5075747;28;20025;-76
2021/10/19 10:58:26;;;;;;;18.25;15.38;;;410.20;2355.20;;;;;;5075216;28;20024;-78
2021/10/19 11:00:53;;;;;;;19.67;16.83;;;410.20;2355.20;;;;;;5076760;28;20025;-78
2021/10/19 11:03:20;;;;;;;34.10;18.67;;;410.50;2355.20;;;;;;5075506;28;20032;-78
2021/10/19 11:05:58;;;;;;;22.05;16.88;;;410.50;2355.20;;;;;;5075198;28;20078;-77
2021/10/19 11:08:29;;;;;;;23.13;18.90;;;410.50;2355.20;;;;;;5075513;28;20035;-78
2021/10/19 11:11:06;;;;;;;25.20;19.10;;;435.30;2355.20;;;;;;5075400;28;20078;-76
2021/10/19 11:13:44;;;;;;;26.42;19.60;;;435.60;2355.20;;;;;;5074970;28;20025;-77
2021/10/19 11:16:10;;;;;;;35.30;24.38;;;435.80;2355.20;;;;;;5075325;28;20031;-79
2021/10/19 11:18:36;;;;;;;24.48;16.90;;;436.10;2355.20;;;;;;5075023;28;20025;-80
2021/10/19 11:21:02;;;;;;;54.60;36.97;;;460.90;2380.80;;;;;;5076259;28;20080;-76
2021/10/19 11:23:28;;;;;;;21.00;16.85;;;461.10;2380.80;;;;;;5075029;28;20119;-77
2021/10/19 11:25:56;;;;;;;19.88;16.38;;;461.00;2380.80;;;;;;5074895;28;20107;-78
2021/10/19 11:28:23;;;;;;;23.23;17.48;;;461.40;2380.80;;;;;;5073985;28;20024;-77
2021/10/19 11:30:49;;;;;;;19.13;15.10;;;461.50;2380.80;;;;;;5075052;28;20111;-78
2021/10/19 11:33:15;;;;;;;17.92;14.88;;;461.70;2380.80;;;;;;5074731;28;20107;-80
2021/10/19 11:35:41;;;;;;;23.17;16.23;;;461.50;2380.80;;;;;;5074535;28;20052;-75
2021/10/19 11:38:08;;;;;;;26.10;18.48;;;486.60;2380.80;;;;;;5074439;28;20032;-75
2021/10/19 11:40:34;;;;;;;20.17;16.80;;;486.80;2380.80;;;;;;5074314;28;20472;-77
2021/10/19 11:43:02;;;;;;;19.00;15.48;;;486.90;2380.80;;;;;;5075868;28;20064;-79
2021/10/19 11:45:28;;;;;;;20.15;15.65;;;486.80;2380.80;;;;;;5074657;28;20028;-77
2021/10/19 11:47:57;;;;;;;32.45;18.92;;;487.00;2380.80;;;;;;5074387;28;20101;-76
2021/10/19 11:50:35;;;;;;;20.92;16.35;;;487.20;2380.80;;;;;;5075753;28;20090;-77
2021/10/19 11:53:02;;;;;;;29.70;20.35;;;487.30;2380.80;;;;;;5074519;28;20032;-77
2021/10/19 11:55:33;;;;;;;24.17;19.25;;;512.30;2380.80;;;;;;5074217;28;20372;-76
2021/10/19 11:58:04;;;;;;;21.55;17.08;;;512.30;2380.80;;;;;;5074078;28;20077;-78
2021/10/19 12:00:34;;;;;;;24.60;17.60;;;512.20;2380.80;;;;;;5075483;28;20469;-78